Time;durP1;ratioP1;P1;durP2;ratioP2;P2;SDS_P1;SDS_P2;PMS_P1;PMS_P2;Temp;Humidity;BMP_temperature;BMP_pressure;BME280_temperature;BME280_humidity;BME280_pressure;Samples;Min_cycle;Max_cycle;Signal;HPM_P1;HPM_P2
2023/04/06 00:00:00;;;;;;;10.60;7.10;;;2.10;99.90;;;;;;5058810;28;20052;-70
2023/04/06 00:02:32;;;;;;;11.65;6.97;;;2.00;99.90;;;;;;5041926;28;20753;-72
2023/04/06 00:04:57;;;;;;;11.60;7.13;;;2.00;99.90;;;;;;5043808;28;20078;-70
2023/04/06 00:07:23;;;;;;;10.05;7.10;;;1.90;99.90;;;;;;5042697;28;20067;-70
2023/04/06 00:09:50;;;;;;;10.05;6.15;;;2.00;99.90;;;;;;5044396;28;20143;-72
2023/04/06 00:12:17;;;;;;;9.32;6.45;;;1.90;99.90;;;;;;5043951;28;20055;-71
2023/04/06 00:14:43;;;;;;;9.40;6.18;;;1.90;99.90;;;;;;5028493;28;20482;-71
2023/04/06 00:17:12;;;;;;;11.43;6.63;;;1.90;99.90;;;;;;5058982;28;20128;-71
2023/04/06 00:19:38;;;;;;;11.25;5.93;;;1.90;99.90;;;;;;5045655;28;20072;-72
2023/04/06 00:22:03;;;;;;;9.80;6.05;;;1.90;99.90;;;;;;5044114;28;20538;-70
2023/04/06 00:24:30;;;;;;;9.00;6.25;;;1.90;99.90;;;;;;5057697;28;20072;-73
2023/04/06 00:26:56;;;;;;;8.70;5.43;;;1.90;99.90;;;;;;5059386;28;20041;-72
2023/04/06 00:29:25;;;;;;;11.35;5.90;;;1.90;99.90;;;;;;5061120;28;20123;-71
2023/04/06 00:31:51;;;;;;;9.15;5.40;;;1.70;99.90;;;;;;5028818;28;20052;-72
2023/04/06 00:34:17;;;;;;;9.00;5.63;;;1.90;99.90;;;;;;5059970;28;20055;-72
2023/04/06 00:36:44;;;;;;;8.68;6.07;;;1.90;99.90;;;;;;5058281;28;20045;-71
2023/04/06 00:39:11;;;;;;;7.95;5.63;;;1.90;99.90;;;;;;5041606;28;20102;-70
2023/04/06 00:41:38;;;;;;;9.10;5.55;;;1.90;99.90;;;;;;5044306;28;20041;-72
2023/04/06 00:44:04;;;;;;;12.40;5.55;;;1.90;99.90;;;;;;5043065;28;20052;-71
2023/04/06 00:46:30;;;;;;;9.32;6.00;;;1.80;99.90;;;;;;5075685;28;20071;-72
2023/04/06 00:48:59;;;;;;;7.45;5.60;;;1.90;99.90;;;;;;5043666;28;20047;-72
2023/04/06 00:51:26;;;;;;;8.93;6.00;;;1.80;99.90;;;;;;5041408;28;20055;-71
2023/04/06 00:53:52;;;;;;;9.27;5.97;;;1.80;99.90;;;;;;5056178;28;20093;-72
2023/04/06 00:56:19;;;;;;;9.73;5.70;;;1.80;99.90;;;;;;5058276;28;20057;-71
2023/04/06 00:58:45;;;;;;;10.95;5.75;;;1.80;99.90;;;;;;5058115;28;20049;-73
2023/04/06 01:01:11;;;;;;;10.80;5.25;;;1.80;99.90;;;;;;5059947;28;20182;-71
2023/04/06 01:03:37;;;;;;;10.65;5.80;;;1.80;99.90;;;;;;5043221;28;20464;-71
2023/04/06 01:09:03;;;;;;;9.15;6.20;;;1.70;99.90;;;;;;5068693;28;20874;-72
2023/04/06 01:11:31;;;;;;;7.70;5.57;;;1.80;99.90;;;;;;5070478;28;20135;-71
2023/04/06 01:13:57;;;;;;;11.10;5.88;;;1.80;99.90;;;;;;5024070;28;20125;-72
2023/04/06 01:16:24;;;;;;;9.15;5.40;;;1.70;99.90;;;;;;5054296;28;20060;-72
2023/04/06 01:18:50;;;;;;;11.85;6.43;;;1.70;99.90;;;;;;5070440;28;20043;-71
2023/04/06 01:21:25;;;;;;;10.35;6.72;;;1.60;99.90;;;;;;5054414;28;20114;-71
2023/04/06 01:23:51;;;;;;;8.38;5.45;;;1.60;99.90;;;;;;5069687;28;20044;-73
2023/04/06 01:26:17;;;;;;;9.60;6.30;;;1.60;99.90;;;;;;5052426;28;20411;-71
2023/04/06 01:28:44;;;;;;;8.43;6.25;;;1.60;99.90;;;;;;5037043;28;20054;-72
2023/04/06 01:31:10;;;;;;;9.13;6.45;;;1.60;99.90;;;;;;5055700;28;20052;-71
2023/04/06 01:33:37;;;;;;;10.65;6.72;;;1.60;99.90;;;;;;5054639;28;20045;-71
2023/04/06 01:36:03;;;;;;;10.15;6.38;;;1.60;99.90;;;;;;5051443;28;20052;-73
2023/04/06 01:38:30;;;;;;;9.00;5.70;;;1.50;99.90;;;;;;5051589;28;20080;-72
2023/04/06 01:40:56;;;;;;;8.43;5.75;;;1.50;99.90;;;;;;5038466;28;20611;-71
2023/04/06 01:43:27;;;;;;;8.38;5.97;;;1.50;99.90;;;;;;5055674;28;20053;-73
2023/04/06 01:45:53;;;;;;;10.25;6.32;;;1.50;99.90;;;;;;5052559;28;20091;-71
2023/04/06 01:48:28;;;;;;;10.65;6.82;;;1.60;99.90;;;;;;5054093;28;20044;-71
2023/04/06 01:51:01;;;;;;;8.37;5.80;;;1.40;99.90;;;;;;5050030;28;20179;-71
2023/04/06 01:53:27;;;;;;;10.20;6.38;;;1.40;99.90;;;;;;5050690;28;20049;-70
2023/04/06 01:55:55;;;;;;;11.65;5.97;;;1.40;99.90;;;;;;5068298;28;20184;-72
2023/04/06 01:58:21;;;;;;;11.35;6.50;;;1.30;99.90;;;;;;5052697;28;20052;-72
2023/04/06 02:00:46;;;;;;;8.27;5.97;;;1.30;99.90;;;;;;5036390;28;20060;-72
2023/04/06 02:03:14;;;;;;;10.35;5.70;;;1.80;99.90;;;;;;5037502;28;20251;-72
2023/04/06 02:05:40;;;;;;;8.20;6.10;;;2.10;99.90;;;;;;5051477;28;20048;-70
2023/04/06 02:08:12;;;;;;;10.88;6.82;;;1.20;99.90;;;;;;5053335;28;20106;-71
2023/04/06 02:10:38;;;;;;;12.63;6.53;;;1.20;99.90;;;;;;5047269;28;20072;-71
2023/04/06 02:13:03;;;;;;;9.10;6.20;;;1.20;99.90;;;;;;5052689;28;20693;-72
2023/04/06 02:15:29;;;;;;;10.18;6.55;;;1.20;99.90;;;;;;5039084;28;20041;-71
2023/04/06 02:17:55;;;;;;;9.68;6.07;;;1.20;99.90;;;;;;5035351;28;20044;-70
2023/04/06 02:20:21;;;;;;;11.23;6.70;;;1.20;99.90;;;;;;5023236;28;20087;-70
2023/04/06 02:22:48;;;;;;;9.50;6.35;;;1.20;99.90;;;;;;5037938;28;20087;-71
2023/04/06 02:25:14;;;;;;;11.80;6.47;;;1.20;99.90;;;;;;5021506;28;20509;-73
2023/04/06 02:27:40;;;;;;;9.98;6.60;;;1.20;99.90;;;;;;5036759;28;20049;-72
2023/04/06 02:30:07;;;;;;;11.27;7.47;;;1.20;99.90;;;;;;5037323;28;20087;-71
2023/04/06 02:32:35;;;;;;;9.32;6.32;;;1.20;99.90;;;;;;5023135;28;20041;-71
2023/04/06 02:35:07;;;;;;;10.70;6.18;;;1.20;99.90;;;;;;5038758;28;20733;-70
2023/04/06 02:37:32;;;;;;;9.57;6.10;;;1.20;99.90;;;;;;5055737;28;20102;-71
2023/04/06 02:39:59;;;;;;;9.52;6.75;;;1.20;99.90;;;;;;5056345;28;20170;-72
2023/04/06 02:42:25;;;;;;;10.32;6.75;;;1.20;99.90;;;;;;5036928;28;20195;-73
2023/04/06 02:44:50;;;;;;;9.55;6.47;;;1.20;99.90;;;;;;5038437;28;20057;-72
2023/04/06 02:47:16;;;;;;;8.88;6.20;;;1.20;99.90;;;;;;5022866;28;20104;-71
2023/04/06 02:49:42;;;;;;;12.93;7.28;;;1.20;99.90;;;;;;5023436;28;20063;-72
2023/04/06 02:52:08;;;;;;;11.98;6.63;;;1.20;99.90;;;;;;5054082;28;20391;-70
2023/04/06 02:54:35;;;;;;;12.98;7.28;;;1.20;99.90;;;;;;5040455;28;20561;-72
2023/04/06 02:57:00;;;;;;;8.88;6.40;;;1.10;99.90;;;;;;5037178;28;20048;-71
2023/04/06 02:59:27;;;;;;;10.02;6.93;;;1.70;99.90;;;;;;5022487;28;20041;-72
2023/04/06 03:01:52;;;;;;;12.73;7.25;;;1.20;99.90;;;;;;5021384;28;20918;-71
2023/04/06 03:04:18;;;;;;;10.23;7.30;;;1.20;99.90;;;;;;5037903;28;20040;-72
2023/04/06 03:06:45;;;;;;;9.30;7.07;;;1.20;99.90;;;;;;5022885;28;20628;-71
2023/04/06 03:09:11;;;;;;;11.30;6.88;;;1.20;99.90;;;;;;5025411;28;20066;-71
2023/04/06 03:11:37;;;;;;;11.82;7.32;;;1.20;99.90;;;;;;5036395;28;20079;-71
2023/04/06 03:14:02;;;;;;;9.95;7.00;;;1.20;99.90;;;;;;5022886;28;20049;-70
2023/04/06 03:16:28;;;;;;;8.43;6.68;;;1.10;99.90;;;;;;5038224;28;20049;-72
2023/04/06 03:18:54;;;;;;;11.13;6.93;;;1.20;99.90;;;;;;5008402;28;20040;-71
2023/04/06 03:21:20;;;;;;;9.55;7.43;;;1.10;99.90;;;;;;5005314;28;20128;-72
2023/04/06 03:23:46;;;;;;;13.75;7.22;;;1.10;99.90;;;;;;5053036;28;20048;-71
2023/04/06 03:26:22;;;;;;;10.57;7.18;;;1.20;99.90;;;;;;5037412;28;20053;-71
2023/04/06 03:28:48;;;;;;;10.10;6.97;;;1.10;99.90;;;;;;5040106;28;20879;-73
2023/04/06 03:31:13;;;;;;;10.27;6.97;;;1.10;99.90;;;;;;5036739;28;20174;-73
2023/04/06 03:33:45;;;;;;;11.20;7.10;;;1.20;99.90;;;;;;5035008;28;20241;-72
2023/04/06 03:36:11;;;;;;;11.98;7.25;;;1.20;99.90;;;;;;5051460;28;20517;-71
2023/04/06 03:38:37;;;;;;;11.05;7.30;;;1.20;99.90;;;;;;5036608;28;20046;-71
2023/04/06 03:41:03;;;;;;;13.02;7.72;;;1.10;99.90;;;;;;5023969;28;20127;-72
2023/04/06 03:43:28;;;;;;;9.32;6.47;;;1.20;99.90;;;;;;5037412;28;20045;-71
2023/04/06 03:45:56;;;;;;;10.90;7.25;;;0.60;99.90;;;;;;5021321;28;20060;-72
2023/04/06 03:48:22;;;;;;;13.32;7.68;;;1.20;99.90;;;;;;5022985;28;20045;-73
2023/04/06 03:50:47;;;;;;;11.15;7.22;;;1.20;99.90;;;;;;5020164;28;20502;-71
2023/04/06 03:53:13;;;;;;;14.52;8.38;;;1.20;99.90;;;;;;5018366;28;20479;-73
2023/04/06 03:55:41;;;;;;;11.18;6.97;;;1.20;99.90;;;;;;5038110;28;20087;-70
2023/04/06 03:58:06;;;;;;;11.85;8.02;;;1.20;99.90;;;;;;5038650;28;20045;-72
2023/04/06 04:00:32;;;;;;;12.98;8.23;;;0.40;99.90;;;;;;5019465;28;20053;-72
2023/04/06 04:02:59;;;;;;;10.88;7.88;;;1.30;99.90;;;;;;5040084;28;20134;-72
2023/04/06 04:05:25;;;;;;;11.73;7.50;;;1.50;99.90;;;;;;5021495;28;20511;-71
2023/04/06 04:07:52;;;;;;;11.85;7.90;;;1.30;99.90;;;;;;5037690;28;20160;-71
2023/04/06 04:10:19;;;;;;;10.35;7.05;;;1.30;99.90;;;;;;5053333;28;20075;-71
2023/04/06 04:12:45;;;;;;;15.38;8.32;;;1.30;99.90;;;;;;5037420;28;20053;-71
2023/04/06 04:15:11;;;;;;;12.27;7.78;;;1.30;99.90;;;;;;5037813;28;20049;-72
2023/04/06 04:17:38;;;;;;;9.48;7.18;;;1.30;99.90;;;;;;5036643;28;20072;-73
2023/04/06 04:20:05;;;;;;;10.57;7.40;;;0.90;99.90;;;;;;5039948;28;20033;-71
2023/04/06 04:22:32;;;;;;;10.82;7.68;;;1.40;99.90;;;;;;5037254;28;20076;-72
2023/04/06 04:25:04;;;;;;;12.82;7.72;;;1.40;99.90;;;;;;5055434;28;20470;-71
2023/04/06 04:27:30;;;;;;;10.23;7.40;;;1.40;99.90;;;;;;5037063;28;20553;-72
2023/04/06 04:29:57;;;;;;;11.45;7.70;;;1.40;99.90;;;;;;5055734;28;20053;-71
2023/04/06 04:32:28;;;;;;;11.30;7.57;;;1.40;99.90;;;;;;5054333;28;20064;-72
2023/04/06 04:34:57;;;;;;;10.43;7.30;;;1.40;99.90;;;;;;5043904;28;20053;-72
2023/04/06 04:37:26;;;;;;;10.13;7.65;;;1.40;99.90;;;;;;5038532;28;20056;-73
2023/04/06 04:39:57;;;;;;;11.48;8.38;;;1.40;99.90;;;;;;5038099;28;20097;-71
2023/04/06 04:42:23;;;;;;;13.02;7.75;;;1.40;99.90;;;;;;5025055;28;20049;-72
2023/04/06 04:44:55;;;;;;;12.13;7.43;;;1.40;99.90;;;;;;5038964;28;20052;-72
2023/04/06 04:47:21;;;;;;;11.55;7.85;;;1.40;99.90;;;;;;5055800;28;21438;-73
2023/04/06 04:49:47;;;;;;;12.77;8.18;;;1.40;99.90;;;;;;5037409;28;20052;-72
2023/04/06 04:52:13;;;;;;;11.85;7.88;;;1.40;99.90;;;;;;5036812;28;20861;-71
2023/04/06 04:54:40;;;;;;;12.90;8.32;;;1.50;99.90;;;;;;5021056;28;20036;-71
2023/04/06 04:57:07;;;;;;;12.73;8.40;;;1.50;99.90;;;;;;5037967;28;20045;-72
2023/04/06 04:59:35;;;;;;;13.45;8.00;;;1.50;99.90;;;;;;5036088;28;20041;-72
2023/04/06 05:02:01;;;;;;;11.13;7.75;;;1.50;99.90;;;;;;5022286;28;20609;-71
2023/04/06 05:04:33;;;;;;;11.93;7.80;;;1.50;99.90;;;;;;5050869;28;20608;-72
2023/04/06 05:07:09;;;;;;;13.13;8.63;;;1.50;99.90;;;;;;5019333;28;20053;-74
2023/04/06 05:09:35;;;;;;;12.55;8.15;;;1.70;99.90;;;;;;5018127;28;21276;-75
2023/04/06 05:12:03;;;;;;;13.60;8.60;;;1.50;99.90;;;;;;5039337;28;20102;-72
2023/04/06 05:14:29;;;;;;;14.52;9.02;;;1.50;99.90;;;;;;5037454;28;20084;-73
2023/04/06 05:16:55;;;;;;;14.20;8.88;;;1.60;99.90;;;;;;5057577;28;20064;-73
2023/04/06 05:19:21;;;;;;;12.90;7.90;;;2.10;99.90;;;;;;5026997;28;20055;-74
2023/04/06 05:21:47;;;;;;;12.48;8.57;;;1.60;99.90;;;;;;5047301;28;20095;-75
2023/04/06 05:24:15;;;;;;;14.73;8.57;;;1.60;99.90;;;;;;5047305;28;20052;-75
2023/04/06 05:26:41;;;;;;;14.32;8.75;;;1.70;99.90;;;;;;5027611;28;20049;-75
2023/04/06 05:29:10;;;;;;;14.00;8.13;;;1.70;99.90;;;;;;5039765;28;20052;-74
2023/04/06 05:31:35;;;;;;;12.88;8.63;;;1.80;99.90;;;;;;5024452;28;20053;-72
2023/04/06 05:34:01;;;;;;;13.50;8.73;;;1.80;99.90;;;;;;5037170;28;20063;-72
2023/04/06 05:36:30;;;;;;;14.75;8.52;;;1.80;99.90;;;;;;5052505;28;20482;-73
2023/04/06 05:38:59;;;;;;;13.68;8.10;;;1.90;99.90;;;;;;5040149;28;20067;-72
2023/04/06 05:41:25;;;;;;;13.40;7.85;;;1.90;99.90;;;;;;5038914;28;20535;-72
2023/04/06 05:43:51;;;;;;;12.23;8.25;;;1.90;99.90;;;;;;5054132;28;20052;-72
2023/04/06 05:46:17;;;;;;;12.38;8.10;;;2.10;99.90;;;;;;5037517;28;20041;-73
2023/04/06 05:48:43;;;;;;;13.60;8.90;;;2.10;99.90;;;;;;5024212;28;20414;-74
2023/04/06 05:51:09;;;;;;;14.25;8.82;;;2.10;99.90;;;;;;5024700;28;20061;-73
2023/04/06 05:53:34;;;;;;;13.95;9.90;;;2.20;99.90;;;;;;5064246;28;20064;-72
2023/04/06 05:56:04;;;;;;;16.40;9.30;;;2.30;99.90;;;;;;5065929;28;20048;-72
2023/04/06 05:58:30;;;;;;;12.95;8.48;;;2.40;99.90;;;;;;5062175;28;20411;-71
2023/04/06 06:01:00;;;;;;;15.15;8.30;;;2.40;99.90;;;;;;5050495;28;20412;-73
2023/04/06 06:03:26;;;;;;;15.52;9.13;;;2.50;99.90;;;;;;5013189;28;20045;-73
2023/04/06 06:05:52;;;;;;;12.32;9.20;;;2.60;99.90;;;;;;5065520;28;20426;-72
2023/04/06 06:08:18;;;;;;;13.07;8.10;;;2.70;99.90;;;;;;5049886;28;20048;-71
2023/04/06 06:10:44;;;;;;;13.98;8.95;;;2.80;99.90;;;;;;5051898;28;20048;-73
2023/04/06 06:13:10;;;;;;;13.60;8.20;;;3.00;99.90;;;;;;5031895;28;20051;-72
2023/04/06 06:15:35;;;;;;;15.63;8.90;;;3.10;99.90;;;;;;5033178;28;20044;-72
2023/04/06 06:18:02;;;;;;;12.75;9.45;;;3.20;99.90;;;;;;5031688;28;20044;-72
2023/04/06 06:20:28;;;;;;;12.55;8.35;;;3.40;99.90;;;;;;5029305;28;20045;-71
2023/04/06 06:22:53;;;;;;;13.57;8.85;;;3.50;99.90;;;;;;5065201;28;20041;-72
2023/04/06 06:25:23;;;;;;;13.65;8.73;;;3.70;99.90;;;;;;5049520;28;20496;-71
2023/04/06 06:27:49;;;;;;;12.02;8.57;;;3.80;99.90;;;;;;5050329;28;20052;-71
2023/04/06 06:30:15;;;;;;;15.35;8.85;;;4.00;99.90;;;;;;5044801;28;20394;-72
2023/04/06 06:32:44;;;;;;;14.63;9.48;;;4.10;99.90;;;;;;5044698;28;20386;-71
2023/04/06 06:35:11;;;;;;;18.20;9.75;;;4.30;99.90;;;;;;5063653;28;20048;-74
2023/04/06 06:37:41;;;;;;;15.13;9.20;;;4.40;99.90;;;;;;5032678;28;20067;-73
2023/04/06 06:40:10;;;;;;;12.88;8.48;;;4.60;99.90;;;;;;5063004;28;20436;-72
2023/04/06 06:42:36;;;;;;;15.15;9.05;;;4.70;99.90;;;;;;5013883;28;20049;-73
2023/04/06 06:45:02;;;;;;;14.00;9.13;;;4.80;99.90;;;;;;5045519;28;20064;-72
2023/04/06 06:47:28;;;;;;;13.45;8.93;;;4.90;99.90;;;;;;5060222;28;20040;-74
2023/04/06 06:49:55;;;;;;;13.85;8.95;;;5.10;99.90;;;;;;5030634;28;20515;-72
2023/04/06 06:52:23;;;;;;;11.95;8.80;;;5.20;99.90;;;;;;5043859;28;20045;-72
2023/04/06 06:54:50;;;;;;;11.77;8.25;;;5.30;99.90;;;;;;5039493;28;20127;-73
2023/04/06 06:57:18;;;;;;;13.45;8.30;;;5.40;99.90;;;;;;5014267;28;20095;-72
2023/04/06 06:59:44;;;;;;;12.85;8.60;;;5.60;99.90;;;;;;5045313;28;20040;-72
2023/04/06 07:02:12;;;;;;;12.65;8.45;;;5.70;99.90;;;;;;5043630;28;20045;-74
2023/04/06 07:04:37;;;;;;;15.00;8.30;;;5.80;99.90;;;;;;5025668;28;20138;-73
2023/04/06 07:07:03;;;;;;;12.30;8.18;;;6.00;99.90;;;;;;5061926;28;20110;-73
2023/04/06 07:09:29;;;;;;;12.90;9.15;;;6.10;99.90;;;;;;5061316;28;20850;-72
2023/04/06 07:11:56;;;;;;;14.35;8.73;;;5.60;99.90;;;;;;5044124;28;20082;-71
2023/04/06 07:14:23;;;;;;;14.10;8.45;;;6.50;99.90;;;;;;5042966;28;20049;-72
2023/04/06 07:16:50;;;;;;;17.67;9.13;;;6.70;99.90;;;;;;5025549;28;20057;-73
2023/04/06 07:19:16;;;;;;;13.43;8.65;;;6.90;99.90;;;;;;5047190;28;20258;-73
2023/04/06 07:21:42;;;;;;;12.60;8.70;;;7.10;99.90;;;;;;5062457;28;20157;-71
2023/04/06 07:24:07;;;;;;;12.63;8.80;;;7.10;99.90;;;;;;5060006;28;20130;-73
2023/04/06 07:26:39;;;;;;;13.25;8.38;;;7.20;99.90;;;;;;5042712;28;20052;-73
2023/04/06 07:29:06;;;;;;;15.32;9.43;;;7.20;99.90;;;;;;5060128;28;20048;-72
2023/04/06 07:31:33;;;;;;;12.18;8.82;;;7.30;99.90;;;;;;5028854;28;20041;-73
2023/04/06 07:33:59;;;;;;;12.95;9.45;;;7.30;99.90;;;;;;5040408;28;20052;-72
2023/04/06 07:36:25;;;;;;;12.63;8.85;;;7.30;99.90;;;;;;5047923;28;20053;-72
2023/04/06 07:38:51;;;;;;;15.30;10.18;;;7.40;99.90;;;;;;5059263;28;20366;-72
2023/04/06 07:41:17;;;;;;;16.75;10.02;;;7.40;99.90;;;;;;5042194;28;20388;-72
2023/04/06 07:43:43;;;;;;;13.65;9.57;;;7.40;99.90;;;;;;5042648;28;20204;-73
2023/04/06 07:46:09;;;;;;;15.68;9.57;;;7.50;99.90;;;;;;5059352;28;20158;-72
2023/04/06 07:48:35;;;;;;;16.27;10.88;;;7.50;99.90;;;;;;5045013;28;20046;-74
2023/04/06 07:51:02;;;;;;;16.55;10.02;;;7.60;99.90;;;;;;5028465;28;20056;-73
2023/04/06 07:53:28;;;;;;;17.15;11.15;;;7.60;99.90;;;;;;5028054;28;20080;-74
2023/04/06 07:55:55;;;;;;;17.23;11.73;;;7.70;99.90;;;;;;5046442;28;20045;-73
2023/04/06 07:58:21;;;;;;;17.83;11.20;;;7.70;99.90;;;;;;5045182;28;20045;-71
2023/04/06 08:00:47;;;;;;;20.40;10.82;;;7.80;99.90;;;;;;5044179;28;20052;-73
2023/04/06 08:03:13;;;;;;;18.02;11.98;;;7.80;99.90;;;;;;5040997;28;20053;-73
2023/04/06 08:05:39;;;;;;;19.45;11.75;;;8.00;99.90;;;;;;5026886;28;20060;-72
2023/04/06 08:08:05;;;;;;;19.08;11.32;;;8.00;99.90;;;;;;5046558;28;20156;-72
2023/04/06 08:10:30;;;;;;;19.80;12.27;;;8.10;99.90;;;;;;5044590;28;20048;-73
2023/04/06 08:12:57;;;;;;;17.77;12.15;;;8.20;99.90;;;;;;5012219;28;20052;-72
2023/04/06 08:15:22;;;;;;;16.85;11.77;;;8.40;99.90;;;;;;5027844;28;20045;-75
2023/04/06 08:17:49;;;;;;;20.75;12.38;;;8.40;99.90;;;;;;5032654;28;20142;-72
2023/04/06 08:20:15;;;;;;;17.88;11.30;;;8.40;99.90;;;;;;5046703;28;20049;-74
2023/04/06 08:22:41;;;;;;;18.52;12.15;;;8.40;99.90;;;;;;5050068;28;20040;-73
2023/04/06 08:25:07;;;;;;;19.75;12.10;;;8.50;99.90;;;;;;5030805;28;20045;-71
2023/04/06 08:27:33;;;;;;;22.65;12.05;;;8.50;99.90;;;;;;5063857;28;20040;-73
2023/04/06 08:29:58;;;;;;;18.95;11.88;;;8.50;99.90;;;;;;5046331;28;20556;-73
2023/04/06 08:32:26;;;;;;;18.15;11.95;;;8.50;99.90;;;;;;5044670;28;20094;-73
2023/04/06 08:35:01;;;;;;;21.75;12.18;;;8.50;99.90;;;;;;5048504;28;20072;-73
2023/04/06 08:37:27;;;;;;;19.27;12.32;;;8.50;99.90;;;;;;5043588;28;20167;-73
2023/04/06 08:39:54;;;;;;;16.33;11.82;;;8.40;99.90;;;;;;5022703;28;20109;-73
2023/04/06 08:42:26;;;;;;;17.15;11.43;;;8.40;99.90;;;;;;5029351;28;20091;-73
2023/04/06 08:44:52;;;;;;;16.35;10.80;;;8.40;99.90;;;;;;5041802;28;20614;-73
2023/04/06 08:47:19;;;;;;;19.23;11.95;;;8.40;99.90;;;;;;5046767;28;20088;-73
2023/04/06 08:49:46;;;;;;;17.48;12.70;;;8.40;99.90;;;;;;5013905;28;20053;-73
2023/04/06 08:52:12;;;;;;;17.17;11.52;;;8.50;99.90;;;;;;5044969;28;20395;-73
2023/04/06 08:54:39;;;;;;;17.77;11.70;;;8.50;99.90;;;;;;5045000;28;20052;-72
2023/04/06 08:57:06;;;;;;;17.90;11.38;;;8.50;99.90;;;;;;5045067;28;20107;-73
2023/04/06 08:59:36;;;;;;;16.70;12.18;;;8.60;99.90;;;;;;5044863;28;20446;-73
2023/04/06 09:02:05;;;;;;;16.67;11.57;;;8.70;99.90;;;;;;5026284;28;20044;-73
2023/04/06 09:04:35;;;;;;;17.85;12.07;;;8.80;99.90;;;;;;5036565;28;20053;-74
2023/04/06 09:07:01;;;;;;;16.67;11.60;;;8.80;99.90;;;;;;5043078;28;20139;-72
2023/04/06 09:09:27;;;;;;;17.90;11.45;;;8.90;99.90;;;;;;5044348;28;20131;-72
2023/04/06 09:11:54;;;;;;;16.92;11.60;;;8.90;99.90;;;;;;5046425;28;20056;-74
2023/04/06 09:14:40;;;;;;;20.00;11.88;;;8.90;99.90;;;;;;5044955;28;20174;-72
2023/04/06 09:17:06;;;;;;;16.80;11.60;;;9.00;99.90;;;;;;5057471;28;20037;-72
2023/04/06 09:19:32;;;;;;;19.17;11.70;;;9.10;99.90;;;;;;5040485;28;20073;-72
2023/04/06 09:22:07;;;;;;;19.50;11.60;;;9.10;99.90;;;;;;5043539;28;20076;-73
2023/04/06 09:24:46;;;;;;;18.25;11.50;;;9.10;99.90;;;;;;5054927;28;20057;-72
2023/04/06 09:27:13;;;;;;;17.08;11.52;;;9.20;99.90;;;;;;5029315;28;20041;-73
2023/04/06 09:29:42;;;;;;;16.70;12.45;;;9.30;99.90;;;;;;5041923;28;20070;-73
2023/04/06 09:32:10;;;;;;;20.05;12.77;;;9.30;99.90;;;;;;5039300;28;20076;-73
2023/04/06 09:34:40;;;;;;;18.33;11.93;;;9.30;99.90;;;;;;5022170;28;20048;-73
2023/04/06 09:37:16;;;;;;;18.05;11.75;;;9.40;99.90;;;;;;5047910;28;20131;-73
2023/04/06 09:39:42;;;;;;;22.65;13.65;;;9.50;99.90;;;;;;5034804;28;20049;-73
2023/04/06 09:42:10;;;;;;;18.42;12.38;;;9.60;99.90;;;;;;5033976;28;20064;-73
2023/04/06 09:44:37;;;;;;;19.02;12.52;;;9.80;99.90;;;;;;5031864;28;20056;-73
2023/04/06 09:47:09;;;;;;;19.52;13.00;;;9.90;99.90;;;;;;5046548;28;20096;-72
2023/04/06 09:49:36;;;;;;;20.67;13.52;;;9.90;99.90;;;;;;5049397;28;20127;-72
2023/04/06 09:52:07;;;;;;;21.85;13.35;;;9.90;99.90;;;;;;5013210;28;20056;-72
2023/04/06 09:54:36;;;;;;;18.88;12.40;;;10.00;99.90;;;;;;5015238;28;20056;-73
2023/04/06 09:57:33;;;;;;;19.95;12.85;;;10.00;99.90;;;;;;5046052;28;20051;-73
2023/04/06 10:00:11;;;;;;;20.65;13.30;;;10.20;99.90;;;;;;5045878;28;20076;-73
2023/04/06 10:02:56;;;;;;;25.00;14.20;;;10.20;99.90;;;;;;5029438;28;20420;-73
2023/04/06 10:05:40;;;;;;;20.33;13.25;;;10.30;99.90;;;;;;5036720;28;20053;-73
2023/04/06 10:08:10;;;;;;;21.00;13.40;;;10.50;99.90;;;;;;5048759;28;20450;-72
2023/04/06 10:10:39;;;;;;;22.20;13.20;;;10.60;99.90;;;;;;5031383;28;20045;-72
2023/04/06 10:13:05;;;;;;;20.08;13.40;;;10.70;99.90;;;;;;5063888;28;20084;-74
2023/04/06 10:15:32;;;;;;;21.98;14.73;;;10.80;99.90;;;;;;5027256;28;20037;-74
2023/04/06 10:18:01;;;;;;;20.98;13.43;;;10.80;99.90;;;;;;5045966;28;20056;-74
2023/04/06 10:21:01;;;;;;;22.17;15.10;;;10.90;99.90;;;;;;5047169;28;20087;-74
2023/04/06 10:23:33;;;;;;;22.77;15.05;;;10.90;99.90;;;;;;5040329;28;20557;-73
2023/04/06 10:26:00;;;;;;;19.48;14.13;;;10.90;99.90;;;;;;5064438;28;20102;-72
2023/04/06 10:28:32;;;;;;;23.52;15.60;;;10.90;99.90;;;;;;5012534;28;20085;-72
2023/04/06 10:31:00;;;;;;;27.52;16.23;;;11.00;99.90;;;;;;5045832;28;20403;-73
2023/04/06 10:33:32;;;;;;;23.17;15.00;;;11.00;99.90;;;;;;5041952;28;20045;-73
2023/04/06 10:36:09;;;;;;;24.52;15.80;;;11.00;99.90;;;;;;5048021;28;20045;-73
2023/04/06 10:38:37;;;;;;;23.17;15.60;;;11.10;99.90;;;;;;5029166;28;20507;-72
2023/04/06 10:41:09;;;;;;;26.25;16.15;;;11.20;99.90;;;;;;5031991;28;20055;-73
2023/04/06 10:43:36;;;;;;;26.58;17.58;;;11.30;99.90;;;;;;5039277;28;20044;-72
2023/04/06 10:46:03;;;;;;;25.30;15.63;;;11.40;99.90;;;;;;5044712;28;20114;-72
2023/04/06 10:48:56;;;;;;;25.65;16.60;;;11.50;99.90;;;;;;5046035;28;20041;-71
2023/04/06 10:51:27;;;;;;;23.92;15.90;;;11.60;99.90;;;;;;5046334;28;20076;-73
2023/04/06 10:53:54;;;;;;;25.40;17.35;;;11.50;99.90;;;;;;5061945;28;20507;-73
2023/04/06 10:56:25;;;;;;;27.20;17.40;;;11.50;99.90;;;;;;5047466;28;20098;-73
2023/04/06 10:58:55;;;;;;;27.10;17.00;;;11.50;99.90;;;;;;5045972;28;20065;-73
2023/04/06 11:01:27;;;;;;;26.85;17.08;;;11.50;99.90;;;;;;5049883;28;20103;-73
2023/04/06 11:03:55;;;;;;;26.33;16.13;;;10.50;99.90;;;;;;5026591;28;20060;-71
2023/04/06 11:06:23;;;;;;;22.85;16.08;;;11.30;99.90;;;;;;5046266;28;20080;-73
2023/04/06 11:08:50;;;;;;;30.90;16.60;;;11.30;99.90;;;;;;5049743;28;20041;-72
2023/04/06 11:11:26;;;;;;;25.85;15.75;;;11.30;99.90;;;;;;5043073;28;20134;-73
2023/04/06 11:13:53;;;;;;;27.05;16.35;;;11.40;99.90;;;;;;5050262;28;20148;-73
2023/04/06 11:16:26;;;;;;;31.52;16.58;;;11.40;99.90;;;;;;5042033;28;20479;-71
2023/04/06 11:18:57;;;;;;;27.05;16.58;;;11.40;99.90;;;;;;5045655;28;20045;-72
2023/04/06 11:21:47;;;;;;;25.00;16.05;;;11.40;99.90;;;;;;5030487;28;20053;-72
2023/04/06 11:24:22;;;;;;;19.90;12.95;;;11.50;99.90;;;;;;5045474;28;20060;-72
2023/04/06 11:27:11;;;;;;;19.95;13.73;;;11.70;99.90;;;;;;5044846;28;20048;-72
2023/04/06 11:29:37;;;;;;;19.80;13.40;;;11.70;99.90;;;;;;5046444;28;20179;-74
2023/04/06 11:32:10;;;;;;;19.48;12.85;;;11.80;99.90;;;;;;5044387;28;20049;-73
2023/04/06 11:34:46;;;;;;;19.33;13.05;;;11.80;99.90;;;;;;5044616;28;20547;-72
2023/04/06 11:37:12;;;;;;;22.58;14.00;;;11.90;99.90;;;;;;5044890;28;20258;-73
2023/04/06 11:39:43;;;;;;;21.40;13.75;;;12.00;99.90;;;;;;5046518;28;20112;-73
2023/04/06 11:42:09;;;;;;;20.85;13.05;;;12.00;99.90;;;;;;5045933;28;20098;-73
2023/04/06 11:44:49;;;;;;;18.33;12.43;;;12.20;99.90;;;;;;5033763;28;20538;-73
2023/04/06 11:47:15;;;;;;;17.50;11.93;;;12.20;99.90;;;;;;5028112;28;20048;-72
2023/04/06 11:49:47;;;;;;;19.85;12.00;;;12.20;99.90;;;;;;5042706;28;20041;-73
2023/04/06 11:52:22;;;;;;;19.75;13.63;;;12.30;99.90;;;;;;5045682;28;20421;-74
2023/04/06 11:54:49;;;;;;;20.58;14.25;;;12.20;99.90;;;;;;5039486;28;20045;-74
2023/04/06 11:57:20;;;;;;;17.52;12.82;;;12.20;99.90;;;;;;5060758;28;20485;-74
2023/04/06 11:59:45;;;;;;;22.10;13.63;;;12.10;99.90;;;;;;5035433;28;20135;-71
2023/04/06 12:02:12;;;;;;;19.27;13.02;;;12.00;99.90;;;;;;5060485;28;20450;-72
2023/04/06 12:04:38;;;;;;;19.25;14.40;;;11.00;99.90;;;;;;5043315;28;20050;-74
2023/04/06 12:07:04;;;;;;;17.20;12.27;;;11.70;99.90;;;;;;5027210;28;20045;-74
2023/04/06 12:09:34;;;;;;;18.67;11.57;;;11.50;99.90;;;;;;5028321;28;20082;-74
2023/04/06 12:12:00;;;;;;;14.20;9.93;;;11.40;99.90;;;;;;5027824;28;20102;-72
2023/04/06 12:14:26;;;;;;;17.92;10.68;;;11.20;99.90;;;;;;5063795;28;20387;-74
2023/04/06 12:16:52;;;;;;;18.88;12.02;;;11.10;99.90;;;;;;5044775;28;20079;-73
2023/04/06 12:19:18;;;;;;;18.95;12.38;;;11.00;99.90;;;;;;5044206;28;20040;-72
2023/04/06 12:21:44;;;;;;;17.65;12.93;;;10.90;99.90;;;;;;5045863;28;20041;-72
2023/04/06 12:24:09;;;;;;;16.48;12.73;;;10.80;99.90;;;;;;5033753;28;20381;-72
2023/04/06 12:26:37;;;;;;;19.52;12.70;;;10.60;99.90;;;;;;5031043;28;20384;-72
2023/04/06 12:29:09;;;;;;;16.80;11.52;;;10.60;99.90;;;;;;5049370;28;20533;-72
2023/04/06 12:31:36;;;;;;;14.23;10.13;;;10.60;99.90;;;;;;5045495;28;20049;-71
2023/04/06 12:34:04;;;;;;;14.35;9.20;;;10.50;99.90;;;;;;5045885;28;20080;-72
2023/04/06 12:36:33;;;;;;;15.73;9.70;;;10.40;99.90;;;;;;5045232;28;20049;-72
2023/04/06 12:39:04;;;;;;;13.80;10.45;;;10.20;99.90;;;;;;5042080;28;20100;-73
2023/04/06 12:41:35;;;;;;;17.58;11.75;;;10.20;99.90;;;;;;5041432;28;20056;-73
2023/04/06 12:44:01;;;;;;;20.90;12.88;;;10.20;99.90;;;;;;5027626;28;20049;-72
2023/04/06 12:46:29;;;;;;;19.35;12.10;;;10.20;99.90;;;;;;5041460;28;20052;-73
2023/04/06 12:48:59;;;;;;;18.38;11.27;;;10.10;99.90;;;;;;5047955;28;20131;-72